createdAt,value
2017-06-28T00:00:23.173Z,85.20
2017-06-28T00:02:51.481Z,85.20
2017-06-28T00:05:19.769Z,85.30
2017-06-28T00:07:48.085Z,85.30
2017-06-28T00:10:16.388Z,85.40
2017-06-28T00:12:44.721Z,85.30
2017-06-28T00:15:13.012Z,85.10
2017-06-28T00:17:41.306Z,85.10
2017-06-28T00:20:09.616Z,85.00
2017-06-28T00:22:37.908Z,84.80
2017-06-28T00:25:06.217Z,84.90
2017-06-28T00:27:34.513Z,85.00
2017-06-28T00:30:02.829Z,85.20
2017-06-28T00:32:31.120Z,85.40
2017-06-28T00:34:59.412Z,85.90
2017-06-28T00:37:27.729Z,86.10
2017-06-28T00:39:56.018Z,86.00
2017-06-28T00:42:24.320Z,85.50
2017-06-28T00:44:52.604Z,85.30
2017-06-28T00:47:20.917Z,85.20
2017-06-28T00:49:49.205Z,85.20
2017-06-28T00:52:17.494Z,85.30
2017-06-28T00:54:45.804Z,85.50
2017-06-28T00:57:14.108Z,85.40
2017-06-28T00:59:42.428Z,85.50
2017-06-28T01:02:10.717Z,85.40
2017-06-28T01:04:39.032Z,84.90
2017-06-28T01:07:07.316Z,84.20
2017-06-28T01:09:35.605Z,83.60
2017-06-28T01:12:03.913Z,83.00
2017-06-28T01:14:32.206Z,82.40
2017-06-28T01:17:00.514Z,81.80
2017-06-28T01:19:28.800Z,81.20
2017-06-28T01:21:57.118Z,80.30
2017-06-28T01:24:25.409Z,79.40
2017-06-28T01:26:53.697Z,78.70
2017-06-28T01:29:22.009Z,77.70
2017-06-28T01:31:50.302Z,76.60
2017-06-28T01:34:18.613Z,76.10
2017-06-28T01:36:46.923Z,74.80
2017-06-28T01:39:15.238Z,74.50
2017-06-28T01:41:43.532Z,74.30
2017-06-28T01:44:11.831Z,73.30
2017-06-28T01:46:40.144Z,73.30
2017-06-28T01:49:08.432Z,73.80
2017-06-28T01:51:36.736Z,75.00
2017-06-28T01:54:05.029Z,76.10
2017-06-28T01:56:33.336Z,77.60
2017-06-28T01:59:01.625Z,78.60
2017-06-28T02:01:29.916Z,79.60
2017-06-28T02:03:58.225Z,81.10
2017-06-28T02:06:26.512Z,81.70
2017-06-28T02:08:54.825Z,82.30
2017-06-28T02:11:23.113Z,82.80
2017-06-28T02:13:51.437Z,83.30
2017-06-28T02:16:19.730Z,83.80
2017-06-28T02:18:48.020Z,84.60
2017-06-28T02:21:16.336Z,85.20
2017-06-28T02:23:44.633Z,85.70
2017-06-28T02:26:12.957Z,86.00
2017-06-28T02:28:41.251Z,86.20
2017-06-28T02:31:09.572Z,86.40
2017-06-28T02:33:37.849Z,87.10
2017-06-28T02:36:06.141Z,87.30
2017-06-28T02:38:34.452Z,87.10
2017-06-28T02:41:02.732Z,87.10
2017-06-28T02:43:31.041Z,87.60
2017-06-28T02:45:59.330Z,87.50
2017-06-28T02:48:27.641Z,86.10
2017-06-28T02:50:55.924Z,85.80
2017-06-28T02:53:24.214Z,85.10
2017-06-28T02:55:52.528Z,84.80
2017-06-28T02:58:20.820Z,85.10
2017-06-28T03:00:49.125Z,85.40
2017-06-28T03:03:17.413Z,85.80
2017-06-28T03:05:45.733Z,86.10
2017-06-28T03:08:14.033Z,86.40
2017-06-28T03:10:42.324Z,86.90
2017-06-28T03:13:10.645Z,86.80
2017-06-28T03:15:38.933Z,87.10
2017-06-28T03:18:07.254Z,87.20
2017-06-28T03:20:35.544Z,87.40
2017-06-28T03:23:03.856Z,87.80
2017-06-28T03:25:32.146Z,88.00
2017-06-28T03:28:00.460Z,88.30
2017-06-28T03:30:28.744Z,88.40
2017-06-28T03:32:57.057Z,88.50
2017-06-28T03:35:25.360Z,88.80
2017-06-28T03:37:53.644Z,88.60
2017-06-28T03:40:21.955Z,88.50
2017-06-28T03:42:50.240Z,88.80
2017-06-28T03:45:18.548Z,89.00
2017-06-28T03:47:46.837Z,89.20
2017-06-28T03:50:15.152Z,89.20
2017-06-28T03:52:43.441Z,89.30
2017-06-28T03:55:11.731Z,89.30
2017-06-28T03:57:40.045Z,89.00
2017-06-28T04:00:08.337Z,88.80
2017-06-28T04:02:36.649Z,88.80
2017-06-28T04:05:04.941Z,89.10
2017-06-28T04:07:33.252Z,89.00
2017-06-28T04:10:01.537Z,89.00
2017-06-28T04:12:29.856Z,89.00
2017-06-28T04:14:58.148Z,88.90
2017-06-28T04:17:26.441Z,88.80
2017-06-28T04:19:54.752Z,88.40
2017-06-28T04:22:23.041Z,88.30
2017-06-28T04:24:51.349Z,88.30
2017-06-28T04:27:19.637Z,87.70
2017-06-28T04:29:47.953Z,87.70
2017-06-28T04:32:16.244Z,88.00
2017-06-28T04:34:44.553Z,87.80
2017-06-28T04:37:12.845Z,87.60
2017-06-28T04:39:41.137Z,87.40
2017-06-28T04:42:09.457Z,87.60
2017-06-28T04:44:37.751Z,87.50
2017-06-28T04:47:06.061Z,87.50
2017-06-28T04:49:34.353Z,87.30
2017-06-28T04:52:02.665Z,87.10
2017-06-28T04:54:30.972Z,87.10
2017-06-28T04:56:59.281Z,87.10
2017-06-28T04:59:27.574Z,87.10
2017-06-28T05:01:55.856Z,87.20
2017-06-28T05:04:24.171Z,87.20
2017-06-28T05:06:52.496Z,87.30
2017-06-28T05:09:20.805Z,87.10
2017-06-28T05:11:49.085Z,87.10
2017-06-28T05:14:17.392Z,86.90
2017-06-28T05:16:45.697Z,86.90
2017-06-28T05:19:14.019Z,87.10
2017-06-28T05:21:42.337Z,86.90
2017-06-28T05:24:10.632Z,87.30
2017-06-28T05:26:38.936Z,87.50
2017-06-28T05:29:07.225Z,87.60
2017-06-28T05:31:35.536Z,87.50
2017-06-28T05:34:03.826Z,87.20
2017-06-28T05:36:32.129Z,87.10
2017-06-28T05:39:00.417Z,86.60
2017-06-28T05:41:28.727Z,86.90
2017-06-28T05:43:57.021Z,87.00
2017-06-28T05:46:25.308Z,86.20
2017-06-28T05:48:53.613Z,86.20
2017-06-28T05:51:21.906Z,85.80
2017-06-28T05:53:50.216Z,86.20
2017-06-28T05:56:18.528Z,84.90
2017-06-28T05:58:46.852Z,84.20
2017-06-28T06:01:15.148Z,83.60
2017-06-28T06:03:43.572Z,83.40
2017-06-28T06:06:11.875Z,82.90
2017-06-28T06:08:40.167Z,82.60
2017-06-28T06:11:08.480Z,82.60
2017-06-28T06:13:36.761Z,82.50
2017-06-28T06:16:05.068Z,82.40
2017-06-28T06:18:33.357Z,82.60
2017-06-28T06:21:01.743Z,81.30
2017-06-28T06:23:30.049Z,80.90
2017-06-28T06:25:58.336Z,80.20
2017-06-28T06:28:26.637Z,79.40
2017-06-28T06:30:54.936Z,79.10
2017-06-28T06:33:23.240Z,78.60
2017-06-28T06:35:51.520Z,79.00
2017-06-28T06:38:19.838Z,78.90
2017-06-28T06:40:48.120Z,78.50
2017-06-28T06:43:16.404Z,77.90
2017-06-28T06:45:44.733Z,77.70
2017-06-28T06:48:13.026Z,77.60
2017-06-28T06:50:41.345Z,76.60
2017-06-28T06:53:09.629Z,76.00
2017-06-28T06:55:37.940Z,75.10
2017-06-28T06:58:06.225Z,75.20
2017-06-28T07:00:34.512Z,74.70
2017-06-28T07:03:02.829Z,73.80
2017-06-28T07:05:31.120Z,72.50
2017-06-28T07:07:59.425Z,72.30
2017-06-28T07:10:27.721Z,72.80
2017-06-28T07:12:56.037Z,73.10
2017-06-28T07:15:24.324Z,72.80
2017-06-28T07:17:52.612Z,72.30
2017-06-28T07:20:20.922Z,72.20
2017-06-28T07:22:49.213Z,72.40
2017-06-28T07:25:17.529Z,72.60
2017-06-28T07:27:45.822Z,73.10
2017-06-28T07:30:14.153Z,73.10
2017-06-28T07:32:42.449Z,72.00
2017-06-28T07:35:10.780Z,70.70
2017-06-28T07:37:39.077Z,70.50
2017-06-28T07:40:07.364Z,71.50
2017-06-28T07:42:35.672Z,72.10
2017-06-28T07:45:03.961Z,72.60
2017-06-28T07:47:32.271Z,73.60
2017-06-28T07:50:00.569Z,74.00
2017-06-28T07:52:28.884Z,75.10
2017-06-28T07:54:57.172Z,76.00
2017-06-28T07:57:25.493Z,77.00
2017-06-28T07:59:53.777Z,76.60
2017-06-28T08:02:22.070Z,77.30
2017-06-28T08:04:50.389Z,78.00
2017-06-28T08:07:18.684Z,77.80
2017-06-28T08:09:46.997Z,77.70
2017-06-28T08:12:15.306Z,77.00
2017-06-28T08:14:43.621Z,76.60
2017-06-28T08:17:11.922Z,76.60
2017-06-28T08:19:40.268Z,76.50
2017-06-28T08:22:08.552Z,77.30
2017-06-28T08:24:36.842Z,78.40
2017-06-28T08:27:05.153Z,77.70
2017-06-28T08:29:32.682Z,77.60
2017-06-28T08:32:01.008Z,76.00
2017-06-28T08:34:29.296Z,75.60
2017-06-28T08:36:57.616Z,75.00
2017-06-28T08:39:25.908Z,75.10
2017-06-28T08:41:54.236Z,74.20
2017-06-28T08:44:22.536Z,72.90
2017-06-28T08:46:50.821Z,72.50
2017-06-28T08:49:19.211Z,72.70
2017-06-28T08:51:47.512Z,73.10
2017-06-28T08:54:15.830Z,73.90
2017-06-28T08:56:44.130Z,75.50
2017-06-28T08:59:12.452Z,74.70
2017-06-28T09:01:40.746Z,74.80
2017-06-28T09:04:09.069Z,74.80
2017-06-28T09:06:37.352Z,74.60
2017-06-28T09:09:05.752Z,73.60
2017-06-28T09:11:34.063Z,72.90
2017-06-28T09:14:02.350Z,73.20
2017-06-28T09:16:30.657Z,72.20
2017-06-28T09:18:58.948Z,72.50
2017-06-28T09:21:27.256Z,71.90
2017-06-28T09:23:55.557Z,71.20
2017-06-28T09:26:23.884Z,72.00
2017-06-28T09:28:52.176Z,71.40
2017-06-28T09:31:20.477Z,70.90
2017-06-28T09:33:48.785Z,70.90
2017-06-28T09:36:17.080Z,70.90
2017-06-28T09:38:45.397Z,70.90
2017-06-28T09:41:13.697Z,70.30
2017-06-28T09:43:42.012Z,69.80
2017-06-28T09:46:10.309Z,69.20
2017-06-28T09:48:38.627Z,69.30
2017-06-28T09:51:06.916Z,68.80
2017-06-28T09:53:35.205Z,68.30
2017-06-28T09:56:03.513Z,67.60
2017-06-28T09:58:31.801Z,67.30
2017-06-28T10:01:00.122Z,66.40
2017-06-28T10:03:28.413Z,66.30
2017-06-28T10:05:56.721Z,66.40
2017-06-28T10:08:25.014Z,67.30
2017-06-28T10:10:53.337Z,67.60
2017-06-28T10:13:21.628Z,67.80
2017-06-28T10:15:49.908Z,68.10
2017-06-28T10:18:18.224Z,68.00
2017-06-28T10:20:46.512Z,68.00
2017-06-28T10:23:14.830Z,67.70
2017-06-28T10:25:43.122Z,68.00
2017-06-28T10:28:11.451Z,67.70
2017-06-28T10:30:39.748Z,67.50
2017-06-28T10:33:08.038Z,68.30
2017-06-28T10:35:36.348Z,69.40
2017-06-28T10:38:04.633Z,69.90
2017-06-28T10:40:32.944Z,71.20
2017-06-28T10:43:01.254Z,72.10
2017-06-28T10:45:29.571Z,72.60
2017-06-28T10:47:57.869Z,73.70
2017-06-28T10:50:26.201Z,75.00
2017-06-28T10:52:54.493Z,75.60
2017-06-28T10:55:22.776Z,76.60
2017-06-28T10:57:51.088Z,76.30
2017-06-28T11:00:19.388Z,75.50
2017-06-28T11:02:47.700Z,75.00
2017-06-28T11:05:16.020Z,74.90
2017-06-28T11:07:43.585Z,74.90
2017-06-28T11:10:11.888Z,73.70
2017-06-28T11:12:40.213Z,73.90
2017-06-28T11:15:08.497Z,74.60
2017-06-28T11:17:36.780Z,72.90
2017-06-28T11:20:05.089Z,72.10
2017-06-28T11:22:33.384Z,72.00
2017-06-28T11:25:01.692Z,72.70
2017-06-28T11:27:29.989Z,73.00
2017-06-28T11:29:58.325Z,71.80
2017-06-28T11:32:26.617Z,71.10
2017-06-28T11:34:54.904Z,71.80
2017-06-28T11:37:23.214Z,71.40
2017-06-28T11:39:50.741Z,71.40
2017-06-28T11:42:19.057Z,70.80
2017-06-28T11:44:47.357Z,70.60
2017-06-28T11:47:15.676Z,70.90
2017-06-28T11:49:43.970Z,70.50
2017-06-28T11:52:12.268Z,70.30
2017-06-28T11:54:40.611Z,69.30
2017-06-28T11:57:08.897Z,68.50
2017-06-28T11:59:37.213Z,69.20
2017-06-28T12:02:05.501Z,68.20
2017-06-28T12:04:33.816Z,68.30
2017-06-28T12:07:02.101Z,67.90
2017-06-28T12:09:30.393Z,66.60
2017-06-28T12:11:58.699Z,66.30
2017-06-28T12:14:26.989Z,66.20
2017-06-28T12:16:55.298Z,66.10
2017-06-28T12:19:23.589Z,66.20
2017-06-28T12:21:51.901Z,65.70
2017-06-28T12:24:20.185Z,65.40
2017-06-28T12:26:48.473Z,66.10
2017-06-28T12:29:16.785Z,66.50
2017-06-28T12:31:45.082Z,66.40
2017-06-28T12:34:13.407Z,66.10
2017-06-28T12:36:41.696Z,65.80
2017-06-28T12:39:10.009Z,65.90
2017-06-28T12:41:38.296Z,65.70
2017-06-28T12:44:06.584Z,65.90
2017-06-28T12:46:34.892Z,66.20
2017-06-28T12:49:03.183Z,66.40
2017-06-28T12:51:31.500Z,66.60
2017-06-28T12:53:59.789Z,65.50
2017-06-28T12:56:28.105Z,65.10
2017-06-28T12:58:56.396Z,65.10
2017-06-28T13:01:24.721Z,64.00
2017-06-28T13:03:53.005Z,63.30
2017-06-28T13:06:21.296Z,63.30
2017-06-28T13:08:49.602Z,64.10
2017-06-28T13:11:17.893Z,63.80
2017-06-28T13:13:46.205Z,64.40
2017-06-28T13:16:14.512Z,63.40
2017-06-28T13:18:42.833Z,62.40
2017-06-28T13:21:11.125Z,61.00
2017-06-28T13:23:39.413Z,61.20
2017-06-28T13:26:07.725Z,60.60
2017-06-28T13:28:36.013Z,59.70
2017-06-28T13:31:04.323Z,60.50
2017-06-28T13:33:32.611Z,63.80
2017-06-28T13:36:00.953Z,65.20
2017-06-28T13:38:29.273Z,66.00
2017-06-28T13:40:57.588Z,65.50
2017-06-28T13:43:25.886Z,65.50
2017-06-28T13:45:54.176Z,65.60
2017-06-28T13:48:22.485Z,65.70
2017-06-28T13:50:50.768Z,65.60
2017-06-28T13:53:19.081Z,64.40
2017-06-28T13:55:47.384Z,64.50
2017-06-28T13:58:15.710Z,63.50
2017-06-28T14:00:44.020Z,60.80
2017-06-28T14:03:12.385Z,59.90
2017-06-28T14:05:40.672Z,57.00
2017-06-28T14:08:08.958Z,56.30
2017-06-28T14:10:37.268Z,57.30
2017-06-28T14:13:05.553Z,56.70
2017-06-28T14:15:33.861Z,54.90
2017-06-28T14:18:02.153Z,55.80
2017-06-28T14:20:30.461Z,56.00
2017-06-28T14:22:58.750Z,56.00
2017-06-28T14:25:27.076Z,55.00
2017-06-28T14:27:55.365Z,55.10
2017-06-28T14:30:23.657Z,55.70
2017-06-28T14:32:51.972Z,55.90
2017-06-28T14:35:20.260Z,56.90
2017-06-28T14:37:48.573Z,56.90
2017-06-28T14:40:16.877Z,57.00
2017-06-28T14:42:45.205Z,56.10
2017-06-28T14:45:13.509Z,56.30
2017-06-28T14:47:41.858Z,57.60
2017-06-28T14:50:10.158Z,56.30
2017-06-28T14:52:38.442Z,55.60
2017-06-28T14:55:06.752Z,54.90
2017-06-28T14:57:35.040Z,55.50
2017-06-28T15:00:03.353Z,56.20
2017-06-28T15:02:31.644Z,55.50
2017-06-28T15:04:59.969Z,55.20
2017-06-28T15:07:28.271Z,54.30
2017-06-28T15:09:56.586Z,54.60
2017-06-28T15:12:24.877Z,54.30
2017-06-28T15:14:53.177Z,54.00
2017-06-28T15:17:21.493Z,54.50
2017-06-28T15:19:49.782Z,54.00
2017-06-28T15:22:18.096Z,53.60
2017-06-28T15:24:46.393Z,53.10
2017-06-28T15:27:14.713Z,53.50
2017-06-28T15:29:43.009Z,53.70
2017-06-28T15:32:11.324Z,53.00
2017-06-28T15:34:39.608Z,52.60
2017-06-28T15:37:07.896Z,50.90
2017-06-28T15:39:36.205Z,50.80
2017-06-28T15:42:04.502Z,50.30
2017-06-28T15:44:32.813Z,51.20
2017-06-28T15:47:01.112Z,51.90
2017-06-28T15:49:29.430Z,51.90
2017-06-28T15:51:57.731Z,52.30
2017-06-28T15:54:32.836Z,51.40
2017-06-28T15:57:01.134Z,50.40
2017-06-28T15:59:29.448Z,50.60
2017-06-28T16:01:57.733Z,51.50
2017-06-28T16:04:26.020Z,51.80
2017-06-28T16:06:54.329Z,51.90
2017-06-28T16:09:22.617Z,51.20
2017-06-28T16:11:50.928Z,51.40
2017-06-28T16:14:19.217Z,51.00
2017-06-28T16:16:47.531Z,51.00
2017-06-28T16:19:15.833Z,51.20
2017-06-28T16:21:44.157Z,50.60
2017-06-28T16:24:12.450Z,51.30
2017-06-28T16:26:40.740Z,51.90
2017-06-28T16:29:09.079Z,52.30
2017-06-28T16:31:37.365Z,52.20
2017-06-28T16:34:05.681Z,51.80
2017-06-28T16:36:33.968Z,52.00
2017-06-28T16:39:02.277Z,52.30
2017-06-28T16:41:30.573Z,52.30
2017-06-28T16:43:58.899Z,53.00
2017-06-28T16:46:27.189Z,52.40
2017-06-28T16:48:55.481Z,52.50
2017-06-28T16:51:23.797Z,52.50
2017-06-28T16:53:52.093Z,53.00
2017-06-28T16:56:20.408Z,52.50
2017-06-28T16:58:48.697Z,51.70
2017-06-28T17:01:17.014Z,51.50
2017-06-28T17:03:45.310Z,51.60
2017-06-28T17:06:13.635Z,50.80
2017-06-28T17:08:41.948Z,49.10
2017-06-28T17:11:10.254Z,45.70
2017-06-28T17:13:38.566Z,43.30
2017-06-28T17:16:06.858Z,41.50
2017-06-28T17:18:35.173Z,40.50
2017-06-28T17:21:03.461Z,41.30
2017-06-28T17:23:31.777Z,40.20
2017-06-28T17:26:00.079Z,37.40
2017-06-28T17:28:28.421Z,35.90
2017-06-28T17:30:56.712Z,34.60
2017-06-28T17:33:25.005Z,34.20
2017-06-28T17:35:53.320Z,33.70
2017-06-28T17:38:21.611Z,32.90
2017-06-28T17:40:49.925Z,32.00
2017-06-28T17:43:18.223Z,33.20
2017-06-28T17:45:46.556Z,36.30
2017-06-28T17:48:14.852Z,38.70
2017-06-28T17:50:43.461Z,38.50
2017-06-28T17:53:11.796Z,39.90
2017-06-28T17:55:40.086Z,42.10
2017-06-28T17:58:08.402Z,44.30
2017-06-28T18:00:36.693Z,46.30
2017-06-28T18:03:05.012Z,48.10
2017-06-28T18:05:33.301Z,49.40
2017-06-28T18:08:01.633Z,50.50
2017-06-28T18:10:29.929Z,51.40
2017-06-28T18:12:58.234Z,52.40
2017-06-28T18:15:26.548Z,52.70
2017-06-28T18:17:54.835Z,53.50
2017-06-28T18:20:23.149Z,53.80
2017-06-28T18:22:51.440Z,54.10
2017-06-28T18:25:19.752Z,54.30
2017-06-28T18:27:48.041Z,54.90
2017-06-28T18:30:16.358Z,55.60
2017-06-28T18:32:44.674Z,56.30
2017-06-28T18:35:12.966Z,57.10
2017-06-28T18:37:40.513Z,57.10
2017-06-28T18:40:08.808Z,55.20
2017-06-28T18:42:37.112Z,55.60
2017-06-28T18:45:05.403Z,56.20
2017-06-28T18:47:33.718Z,57.00
2017-06-28T18:50:02.002Z,57.30
2017-06-28T18:52:30.314Z,58.40
2017-06-28T18:54:58.601Z,59.50
2017-06-28T18:57:26.914Z,60.70
2017-06-28T18:59:55.213Z,61.00
2017-06-28T19:02:23.524Z,60.90
2017-06-28T19:04:51.819Z,60.30
2017-06-28T19:07:20.149Z,60.60
2017-06-28T19:09:48.457Z,61.90
2017-06-28T19:12:16.749Z,61.80
2017-06-28T19:14:45.064Z,63.30
2017-06-28T19:17:13.365Z,63.10
2017-06-28T19:19:41.682Z,64.90
2017-06-28T19:22:09.973Z,65.20
2017-06-28T19:24:38.301Z,65.00
2017-06-28T19:27:06.596Z,65.40
2017-06-28T19:29:34.892Z,65.90
2017-06-28T19:32:03.205Z,66.60
2017-06-28T19:34:31.508Z,68.60
2017-06-28T19:36:59.862Z,70.00
2017-06-28T19:39:28.154Z,70.80
2017-06-28T19:41:56.464Z,71.00
2017-06-28T19:44:24.757Z,71.20
2017-06-28T19:46:53.106Z,71.40
2017-06-28T19:49:21.393Z,72.00
2017-06-28T19:51:49.684Z,72.50
2017-06-28T19:54:18.016Z,72.30
2017-06-28T19:56:46.314Z,72.60
2017-06-28T19:59:14.660Z,73.00
2017-06-28T20:01:42.957Z,73.40
2017-06-28T20:04:11.292Z,74.10
2017-06-28T20:06:39.576Z,74.70
2017-06-28T20:09:07.897Z,74.90
2017-06-28T20:11:36.900Z,75.30
2017-06-28T20:14:05.186Z,75.50
2017-06-28T20:16:33.506Z,75.70
2017-06-28T20:19:01.815Z,76.00
2017-06-28T20:21:30.145Z,76.30
2017-06-28T20:23:58.439Z,76.70
2017-06-28T20:26:26.750Z,77.10
2017-06-28T20:28:54.274Z,77.10
2017-06-28T20:31:22.605Z,77.80
2017-06-28T20:33:50.906Z,77.70
2017-06-28T20:36:19.198Z,77.80
2017-06-28T20:38:47.518Z,78.00
2017-06-28T20:41:15.046Z,78.00
2017-06-28T20:43:43.453Z,78.40
2017-06-28T20:46:11.864Z,78.60
2017-06-28T20:48:40.173Z,78.90
2017-06-28T20:51:08.464Z,79.00
2017-06-28T20:53:36.776Z,79.20
2017-06-28T20:56:05.069Z,79.40
2017-06-28T20:58:33.357Z,79.60
2017-06-28T21:01:01.693Z,79.80
2017-06-28T21:03:29.990Z,79.90
2017-06-28T21:05:58.300Z,80.20
2017-06-28T21:08:26.593Z,80.40
2017-06-28T21:10:54.896Z,80.40
2017-06-28T21:13:23.181Z,80.50
2017-06-28T21:15:51.506Z,80.60
2017-06-28T21:18:19.800Z,80.80
2017-06-28T21:20:48.124Z,81.20
2017-06-28T21:23:16.445Z,81.40
2017-06-28T21:25:44.759Z,81.40
2017-06-28T21:28:13.085Z,81.50
2017-06-28T21:30:41.378Z,81.70
2017-06-28T21:33:09.717Z,81.70
2017-06-28T21:35:38.008Z,81.30
2017-06-28T21:38:06.306Z,81.60
2017-06-28T21:40:34.621Z,81.70
2017-06-28T21:43:02.909Z,81.50
2017-06-28T21:45:31.238Z,81.30
2017-06-28T21:47:59.549Z,81.40
2017-06-28T21:50:27.862Z,81.10
2017-06-28T21:52:56.158Z,81.10
2017-06-28T21:55:24.477Z,81.10
2017-06-28T21:57:52.768Z,81.10
2017-06-28T22:00:21.062Z,80.80
2017-06-28T22:02:49.376Z,80.70
2017-06-28T22:05:17.665Z,80.50
2017-06-28T22:07:45.981Z,80.60
2017-06-28T22:10:14.286Z,80.80
2017-06-28T22:12:42.602Z,80.90
2017-06-28T22:15:10.895Z,80.90
2017-06-28T22:17:39.201Z,81.10
2017-06-28T22:20:07.493Z,81.00
2017-06-28T22:22:35.781Z,81.10
2017-06-28T22:25:04.117Z,81.40
2017-06-28T22:27:32.404Z,81.60
2017-06-28T22:30:00.720Z,81.70
2017-06-28T22:32:29.005Z,81.80
2017-06-28T22:34:57.317Z,81.90
2017-06-28T22:37:25.608Z,82.00
2017-06-28T22:39:53.920Z,82.20
2017-06-28T22:42:22.228Z,82.50
2017-06-28T22:44:50.521Z,82.70
2017-06-28T22:47:18.833Z,82.80
2017-06-28T22:49:47.125Z,82.70
2017-06-28T22:52:15.448Z,82.90
2017-06-28T22:54:43.748Z,83.80
2017-06-28T22:57:12.063Z,83.20
2017-06-28T22:59:40.344Z,83.40
2017-06-28T23:02:08.656Z,83.60
2017-06-28T23:04:36.937Z,83.60
2017-06-28T23:07:05.228Z,83.60
2017-06-28T23:09:33.537Z,83.70
2017-06-28T23:12:01.825Z,83.90
2017-06-28T23:14:30.145Z,84.10
2017-06-28T23:16:58.436Z,84.30
2017-06-28T23:19:26.747Z,84.40
2017-06-28T23:21:55.036Z,84.40
2017-06-28T23:24:23.361Z,84.40
2017-06-28T23:26:51.648Z,84.40
2017-06-28T23:29:19.931Z,84.40
2017-06-28T23:31:48.238Z,84.50
2017-06-28T23:34:16.537Z,84.50
2017-06-28T23:36:44.850Z,84.50
2017-06-28T23:39:13.141Z,84.70
2017-06-28T23:41:41.462Z,84.70
2017-06-28T23:44:09.749Z,84.80
2017-06-28T23:46:38.068Z,84.70
2017-06-28T23:49:06.361Z,84.60
2017-06-28T23:51:34.652Z,84.60
2017-06-28T23:54:02.965Z,85.50
2017-06-28T23:56:31.256Z,84.70
2017-06-28T23:58:59.571Z,84.60
